createdAt,value
2023-02-07T00:00:17.821Z,16.83
2023-02-07T00:02:46.703Z,14.43
2023-02-07T00:05:17.742Z,14.87
2023-02-07T00:07:46.965Z,14.68
2023-02-07T00:10:17.077Z,15.60
2023-02-07T00:12:47.884Z,16.27
2023-02-07T00:15:17.824Z,14.95
2023-02-07T00:17:51.040Z,14.90
2023-02-07T00:20:24.427Z,14.40
2023-02-07T00:22:51.942Z,13.70
2023-02-07T00:25:25.424Z,15.18
2023-02-07T00:27:55.722Z,15.50
2023-02-07T00:30:32.531Z,15.13
2023-02-07T00:33:02.789Z,15.20
2023-02-07T00:35:33.548Z,12.30
2023-02-07T00:38:00.784Z,12.98
2023-02-07T00:40:32.302Z,14.40
2023-02-07T00:42:59.553Z,14.50
2023-02-07T00:45:29.495Z,14.55
2023-02-07T00:47:57.107Z,14.85
2023-02-07T00:50:24.475Z,13.13
2023-02-07T00:52:51.580Z,12.27
2023-02-07T00:55:22.787Z,13.10
2023-02-07T00:57:49.996Z,12.25
2023-02-07T01:00:20.903Z,12.57
2023-02-07T01:02:51.335Z,13.10
2023-02-07T01:05:28.152Z,13.73
2023-02-07T01:07:58.858Z,11.70
2023-02-07T01:10:28.334Z,12.45
2023-02-07T01:12:55.751Z,13.70
2023-02-07T01:15:25.555Z,12.35
2023-02-07T01:17:56.356Z,13.62
2023-02-07T01:20:26.304Z,11.73
2023-02-07T01:22:57.222Z,12.98
2023-02-07T01:25:29.675Z,12.02
2023-02-07T01:27:57.176Z,12.45
2023-02-07T01:30:27.604Z,11.10
2023-02-07T01:32:58.177Z,11.82
2023-02-07T01:35:25.339Z,11.70
2023-02-07T01:37:55.665Z,11.60
2023-02-07T01:40:22.969Z,13.15
2023-02-07T01:42:50.185Z,12.73
2023-02-07T01:45:23.627Z,11.63
2023-02-07T01:47:53.584Z,11.05
2023-02-07T01:50:27.963Z,12.52
2023-02-07T01:52:56.578Z,12.13
2023-02-07T01:55:30.322Z,11.88
2023-02-07T01:57:57.830Z,11.93
2023-02-07T02:00:25.222Z,12.48
2023-02-07T02:02:55.295Z,11.73
2023-02-07T02:05:26.788Z,11.52
2023-02-07T02:07:57.471Z,10.48
2023-02-07T02:10:41.337Z,12.35
2023-02-07T02:13:40.399Z,11.10
2023-02-07T02:16:28.525Z,11.57
2023-02-07T02:19:06.042Z,10.55
2023-02-07T02:22:10.944Z,10.13
2023-02-07T02:24:49.936Z,10.75
2023-02-07T02:27:43.911Z,10.70
2023-02-07T02:30:35.321Z,10.07
2023-02-07T02:33:20.570Z,10.63
2023-02-07T02:36:18.602Z,10.02
2023-02-07T02:38:55.282Z,10.07
2023-02-07T02:41:27.778Z,10.27
2023-02-07T02:44:04.872Z,10.98
2023-02-07T02:46:36.654Z,11.38
2023-02-07T02:49:10.562Z,10.30
2023-02-07T02:51:37.858Z,9.57
2023-02-07T02:54:25.479Z,9.98
2023-02-07T02:57:27.275Z,10.48
2023-02-07T03:00:36.109Z,10.00
2023-02-07T03:03:30.861Z,10.30
2023-02-07T03:06:01.698Z,7.75
2023-02-07T03:08:39.635Z,9.50
2023-02-07T03:11:14.800Z,9.57
2023-02-07T03:14:05.177Z,10.27
2023-02-07T03:16:59.995Z,9.98
2023-02-07T03:19:44.004Z,9.35
2023-02-07T03:22:17.665Z,11.02
2023-02-07T03:24:55.350Z,9.85
2023-02-07T03:27:28.425Z,9.45
2023-02-07T03:30:04.630Z,10.23
2023-02-07T03:32:36.604Z,10.13
2023-02-07T03:35:25.112Z,10.82
2023-02-07T03:38:01.873Z,10.43
2023-02-07T03:40:36.888Z,9.48
2023-02-07T03:43:22.468Z,11.35
2023-02-07T03:45:59.310Z,9.88
2023-02-07T03:48:32.607Z,9.63
2023-02-07T03:50:59.809Z,8.90
2023-02-07T03:53:26.844Z,10.00
2023-02-07T03:55:56.786Z,8.90
2023-02-07T03:58:23.806Z,8.65
2023-02-07T04:00:51.192Z,9.77
2023-02-07T04:03:21.992Z,9.07
2023-02-07T04:05:55.309Z,9.48
2023-02-07T04:08:27.787Z,9.10
2023-02-07T04:11:02.118Z,8.77
2023-02-07T04:13:31.020Z,10.18
2023-02-07T04:15:58.443Z,8.90
2023-02-07T04:18:25.627Z,9.07
2023-02-07T04:21:04.482Z,8.68
2023-02-07T04:23:35.206Z,9.43
2023-02-07T04:26:02.462Z,9.82
2023-02-07T04:28:29.883Z,9.60
2023-02-07T04:31:03.419Z,9.63
2023-02-07T04:33:30.696Z,11.12
2023-02-07T04:36:00.895Z,10.20
2023-02-07T04:38:34.779Z,10.45
2023-02-07T04:41:04.570Z,9.63
2023-02-07T04:43:38.101Z,10.00
2023-02-07T04:46:11.747Z,10.80
2023-02-07T04:48:39.159Z,8.38
2023-02-07T04:51:14.037Z,9.05
2023-02-07T04:53:52.299Z,9.85
2023-02-07T04:56:22.390Z,9.68
2023-02-07T04:58:49.842Z,9.55
2023-02-07T05:01:21.098Z,9.32
2023-02-07T05:03:55.376Z,9.27
2023-02-07T05:06:32.858Z,9.55
2023-02-07T05:09:06.097Z,9.20
2023-02-07T05:11:35.979Z,8.98
2023-02-07T05:14:03.224Z,9.50
2023-02-07T05:16:30.572Z,9.20
2023-02-07T05:19:04.724Z,9.15
2023-02-07T05:21:31.887Z,8.90
2023-02-07T05:24:05.002Z,8.65
2023-02-07T05:29:02.459Z,8.55
2023-02-07T05:31:35.840Z,8.98
2023-02-07T05:34:13.075Z,9.98
2023-02-07T05:36:47.796Z,9.23
2023-02-07T05:39:18.499Z,10.07
2023-02-07T05:41:50.899Z,8.40
2023-02-07T05:44:29.381Z,8.20
2023-02-07T05:46:59.509Z,8.43
2023-02-07T05:49:30.039Z,8.75
2023-02-07T05:52:02.081Z,9.85
2023-02-07T05:54:32.398Z,8.68
2023-02-07T05:57:03.651Z,10.52
2023-02-07T05:59:34.276Z,8.43
2023-02-07T06:02:04.744Z,8.75
2023-02-07T06:04:35.045Z,9.07
2023-02-07T06:07:08.403Z,8.73
2023-02-07T06:09:40.631Z,9.10
2023-02-07T06:12:12.673Z,11.15
2023-02-07T06:14:40.252Z,9.10
2023-02-07T06:17:10.826Z,11.23
2023-02-07T06:19:41.809Z,8.57
2023-02-07T06:22:13.015Z,10.40
2023-02-07T06:24:43.721Z,10.40
2023-02-07T06:27:13.868Z,10.27
2023-02-07T06:29:40.857Z,9.68
2023-02-07T06:32:10.880Z,11.12
2023-02-07T06:34:46.425Z,8.95
2023-02-07T06:37:19.622Z,8.20
2023-02-07T06:42:23.907Z,10.80
2023-02-07T06:44:54.076Z,8.85
2023-02-07T06:47:21.640Z,9.70
2023-02-07T06:49:48.963Z,12.00
2023-02-07T06:52:21.826Z,12.55
2023-02-07T06:54:51.836Z,21.20
2023-02-07T06:57:21.759Z,16.00
2023-02-07T06:59:55.614Z,15.88
2023-02-07T07:02:22.957Z,19.80
2023-02-07T07:04:50.336Z,21.40
2023-02-07T07:07:20.620Z,24.17
2023-02-07T07:09:50.818Z,23.12
2023-02-07T07:12:23.938Z,21.85
2023-02-07T07:14:54.617Z,22.62
2023-02-07T07:17:24.636Z,25.17
2023-02-07T07:19:52.508Z,34.67
2023-02-07T07:22:24.806Z,37.83
2023-02-07T07:24:51.907Z,46.45
2023-02-07T07:27:22.983Z,39.78
2023-02-07T07:29:56.284Z,45.22
2023-02-07T07:32:33.669Z,45.72
2023-02-07T07:35:02.991Z,48.47
2023-02-07T07:37:32.594Z,57.80
2023-02-07T07:39:59.417Z,100.57
2023-02-07T07:42:27.278Z,76.97
2023-02-07T07:44:54.122Z,84.97
2023-02-07T07:47:21.451Z,81.12
2023-02-07T07:49:49.421Z,78.15
2023-02-07T07:52:17.132Z,81.80
2023-02-07T07:54:44.077Z,86.85
2023-02-07T07:57:11.464Z,84.00
2023-02-07T07:59:38.688Z,77.70
2023-02-07T08:02:10.511Z,87.60
2023-02-07T08:04:41.981Z,251.75
2023-02-07T08:07:09.082Z,291.98
2023-02-07T08:09:43.765Z,231.65
2023-02-07T08:12:13.694Z,227.50
2023-02-07T08:14:43.551Z,222.63
2023-02-07T08:17:13.064Z,240.00
2023-02-07T08:19:42.709Z,239.52
2023-02-07T08:22:09.788Z,238.95
2023-02-07T08:24:42.248Z,223.07
2023-02-07T08:27:12.736Z,242.35
2023-02-07T08:29:43.115Z,238.90
2023-02-07T08:32:10.097Z,240.57
2023-02-07T08:34:42.660Z,236.70
2023-02-07T08:37:09.727Z,246.50
2023-02-07T08:39:42.063Z,241.93
2023-02-07T08:42:09.216Z,265.00
2023-02-07T08:44:36.809Z,271.02
2023-02-07T08:47:04.220Z,265.10
2023-02-07T08:49:34.484Z,261.98
2023-02-07T08:52:01.333Z,259.52
2023-02-07T08:54:31.591Z,268.92
2023-02-07T08:57:02.189Z,259.77
2023-02-07T08:59:32.348Z,261.98
2023-02-07T09:02:06.911Z,371.77
2023-02-07T09:04:40.626Z,286.73
2023-02-07T09:07:08.098Z,280.95
2023-02-07T09:09:37.973Z,272.08
2023-02-07T09:12:05.881Z,270.73
2023-02-07T09:14:33.527Z,251.88
2023-02-07T09:17:00.901Z,246.30
2023-02-07T09:19:37.751Z,250.18
2023-02-07T09:22:08.471Z,266.83
2023-02-07T09:24:38.832Z,308.80
2023-02-07T09:27:08.554Z,278.90
2023-02-07T09:29:43.119Z,256.00
2023-02-07T09:32:16.605Z,241.02
2023-02-07T09:34:47.097Z,244.77
2023-02-07T09:37:14.276Z,237.23
2023-02-07T09:39:44.446Z,238.77
2023-02-07T09:42:30.339Z,241.10
2023-02-07T09:45:12.464Z,214.77
2023-02-07T09:47:46.336Z,218.77
2023-02-07T09:50:19.008Z,225.38
2023-02-07T09:52:56.198Z,208.18
2023-02-07T09:55:49.408Z,209.00
2023-02-07T09:58:33.218Z,222.25
2023-02-07T10:01:13.212Z,202.18
2023-02-07T10:03:55.745Z,205.43
2023-02-07T10:06:33.154Z,207.77
2023-02-07T10:09:01.424Z,185.88
2023-02-07T10:11:37.350Z,175.12
2023-02-07T10:14:30.956Z,172.45
2023-02-07T10:19:30.082Z,166.57
2023-02-07T10:22:08.823Z,152.40
2023-02-07T10:25:10.732Z,156.50
2023-02-07T10:27:49.829Z,157.98
2023-02-07T10:30:24.332Z,148.60
2023-02-07T10:32:51.268Z,147.48
2023-02-07T10:35:42.881Z,145.75
2023-02-07T10:38:33.179Z,137.77
2023-02-07T10:41:18.802Z,149.30
2023-02-07T10:43:48.070Z,140.73
2023-02-07T10:46:18.232Z,128.12
2023-02-07T10:48:47.345Z,140.27
2023-02-07T10:51:56.841Z,121.00
2023-02-07T10:54:31.968Z,130.05
2023-02-07T10:57:02.726Z,124.38
2023-02-07T10:59:45.437Z,109.03
2023-02-07T11:02:30.499Z,123.03
2023-02-07T11:05:28.401Z,117.65
2023-02-07T11:08:24.660Z,116.43
2023-02-07T11:10:59.628Z,112.03
2023-02-07T11:13:47.998Z,95.07
2023-02-07T11:16:24.794Z,78.80
2023-02-07T11:19:03.900Z,89.50
2023-02-07T11:21:42.083Z,100.18
2023-02-07T11:24:34.799Z,96.05
2023-02-07T11:27:02.708Z,81.93
2023-02-07T11:29:55.901Z,80.62
2023-02-07T11:32:28.498Z,77.78
2023-02-07T11:35:00.682Z,95.15
2023-02-07T11:37:58.146Z,81.22
2023-02-07T11:40:38.708Z,81.78
2023-02-07T11:43:20.218Z,90.82
2023-02-07T11:46:00.208Z,88.18
2023-02-07T11:48:35.463Z,89.70
2023-02-07T11:51:08.330Z,79.87
2023-02-07T11:53:38.644Z,77.03
2023-02-07T11:56:06.695Z,75.72
2023-02-07T11:58:43.474Z,78.68
2023-02-07T12:01:19.436Z,70.28
2023-02-07T12:04:04.011Z,64.82
2023-02-07T12:06:56.550Z,72.97
2023-02-07T12:09:40.890Z,72.75
2023-02-07T12:12:22.356Z,66.65
2023-02-07T12:14:54.778Z,72.68
2023-02-07T12:17:44.684Z,65.35
2023-02-07T12:20:25.088Z,65.07
2023-02-07T12:23:40.771Z,60.97
2023-02-07T12:26:31.625Z,68.60
2023-02-07T12:29:23.429Z,62.62
2023-02-07T12:32:14.017Z,60.95
2023-02-07T12:34:55.738Z,55.55
2023-02-07T12:37:34.135Z,52.25
2023-02-07T12:40:12.865Z,55.10
2023-02-07T12:43:04.031Z,57.97
2023-02-07T12:45:42.987Z,59.47
2023-02-07T12:48:41.452Z,53.13
2023-02-07T12:51:49.197Z,52.33
2023-02-07T12:54:22.011Z,55.05
2023-02-07T12:57:05.144Z,50.90
2023-02-07T13:00:09.049Z,49.97
2023-02-07T13:02:56.144Z,48.05
2023-02-07T13:05:33.655Z,45.90
2023-02-07T13:08:33.680Z,46.88
2023-02-07T13:11:25.268Z,51.33
2023-02-07T13:14:18.229Z,49.28
2023-02-07T13:17:06.232Z,42.53
2023-02-07T13:19:45.757Z,43.70
2023-02-07T13:22:37.210Z,46.05
2023-02-07T13:25:07.452Z,43.05
2023-02-07T13:27:43.868Z,47.97
2023-02-07T13:30:19.518Z,37.78
2023-02-07T13:32:48.328Z,39.78
2023-02-07T13:35:20.854Z,43.63
2023-02-07T13:38:22.903Z,44.95
2023-02-07T13:41:11.908Z,34.90
2023-02-07T13:44:11.188Z,39.65
2023-02-07T13:46:40.978Z,37.20
2023-02-07T13:49:24.692Z,36.47
2023-02-07T13:52:18.843Z,35.92
2023-02-07T13:55:08.789Z,37.75
2023-02-07T13:57:38.907Z,35.35
2023-02-07T14:00:22.043Z,33.55
2023-02-07T14:03:19.121Z,32.80
2023-02-07T14:05:46.155Z,38.05
2023-02-07T14:08:15.919Z,34.13
2023-02-07T14:10:49.226Z,33.83
2023-02-07T14:13:31.579Z,36.88
2023-02-07T14:16:03.040Z,49.10
2023-02-07T14:18:54.134Z,31.75
2023-02-07T14:21:23.852Z,34.08
2023-02-07T14:24:02.246Z,31.55
2023-02-07T14:26:37.812Z,30.85
2023-02-07T14:29:23.449Z,26.30
2023-02-07T14:32:26.809Z,29.52
2023-02-07T14:35:01.853Z,30.17
2023-02-07T14:38:13.561Z,25.98
2023-02-07T14:40:43.244Z,28.42
2023-02-07T14:43:18.350Z,28.12
2023-02-07T14:45:51.120Z,21.85
2023-02-07T14:48:45.801Z,24.70
2023-02-07T14:51:50.114Z,25.10
2023-02-07T14:54:47.913Z,23.52
2023-02-07T14:57:27.343Z,27.13
2023-02-07T15:00:03.617Z,28.90
2023-02-07T15:02:39.586Z,25.65
2023-02-07T15:05:31.059Z,24.58
2023-02-07T15:08:04.389Z,31.25
2023-02-07T15:10:55.013Z,29.33
2023-02-07T15:13:35.198Z,30.60
2023-02-07T15:16:17.075Z,28.38
2023-02-07T15:19:32.876Z,28.42
2023-02-07T15:22:20.464Z,29.33
2023-02-07T15:25:01.481Z,26.48
2023-02-07T15:27:35.288Z,24.52
2023-02-07T15:30:07.436Z,29.67
2023-02-07T15:32:41.933Z,24.75
2023-02-07T15:35:24.332Z,26.30
2023-02-07T15:37:53.288Z,34.05
2023-02-07T15:40:36.911Z,30.98
2023-02-07T15:43:24.506Z,28.50
2023-02-07T15:46:11.684Z,29.73
2023-02-07T15:48:53.961Z,25.95
2023-02-07T15:51:32.299Z,28.02
2023-02-07T15:54:06.265Z,31.30
2023-02-07T15:56:39.487Z,31.77
2023-02-07T15:59:14.937Z,31.90
2023-02-07T16:01:51.790Z,26.08
2023-02-07T16:04:30.620Z,28.10
2023-02-07T16:07:06.182Z,25.60
2023-02-07T16:09:45.038Z,29.85
2023-02-07T16:12:44.056Z,26.12
2023-02-07T16:15:27.810Z,26.60
2023-02-07T16:17:58.406Z,39.53
2023-02-07T16:20:33.626Z,23.17
2023-02-07T16:23:03.765Z,27.45
2023-02-07T16:25:34.123Z,30.60
2023-02-07T16:28:03.336Z,25.33
2023-02-07T16:30:37.854Z,30.77
2023-02-07T16:33:06.245Z,33.10
2023-02-07T16:35:36.277Z,25.45
2023-02-07T16:38:03.290Z,26.67
2023-02-07T16:40:36.121Z,23.08
2023-02-07T16:43:06.749Z,25.48
2023-02-07T16:45:40.969Z,30.55
2023-02-07T16:48:14.762Z,25.35
2023-02-07T16:50:44.727Z,31.98
2023-02-07T16:53:11.616Z,30.27
2023-02-07T16:55:39.480Z,25.45
2023-02-07T16:58:07.228Z,28.83
2023-02-07T17:00:37.290Z,25.85
2023-02-07T17:03:15.124Z,20.98
2023-02-07T17:05:42.756Z,22.67
2023-02-07T17:08:22.603Z,27.40
2023-02-07T17:11:01.790Z,23.90
2023-02-07T17:13:31.792Z,21.80
2023-02-07T17:16:04.369Z,20.88
2023-02-07T17:18:34.820Z,24.75
2023-02-07T17:21:01.703Z,21.08
2023-02-07T17:23:31.076Z,23.00
2023-02-07T17:26:05.516Z,21.45
2023-02-07T17:28:36.271Z,21.65
2023-02-07T17:31:03.322Z,20.00
2023-02-07T17:33:30.388Z,20.50
2023-02-07T17:36:00.653Z,24.50
2023-02-07T17:38:30.927Z,21.80
2023-02-07T17:40:58.325Z,19.65
2023-02-07T17:43:25.609Z,25.30
2023-02-07T17:45:55.526Z,23.90
2023-02-07T17:48:25.864Z,30.45
2023-02-07T17:50:57.010Z,19.25
2023-02-07T17:53:26.629Z,19.75
2023-02-07T17:55:56.158Z,23.30
2023-02-07T17:58:25.813Z,19.98
2023-02-07T18:00:58.060Z,20.37
2023-02-07T18:03:27.946Z,23.70
2023-02-07T18:06:00.748Z,20.45
2023-02-07T18:08:29.869Z,19.08
2023-02-07T18:10:59.712Z,18.48
2023-02-07T18:13:26.810Z,23.27
2023-02-07T18:15:59.447Z,18.12
2023-02-07T18:18:29.888Z,18.92
2023-02-07T18:20:57.020Z,20.17
2023-02-07T18:23:26.647Z,18.77
2023-02-07T18:25:56.525Z,22.58
2023-02-07T18:28:25.497Z,17.33
2023-02-07T18:30:52.452Z,16.62
2023-02-07T18:33:23.422Z,19.83
2023-02-07T18:35:56.700Z,22.58
2023-02-07T18:38:29.671Z,20.05
2023-02-07T18:41:00.192Z,21.90
2023-02-07T18:43:30.335Z,18.98
2023-02-07T18:45:59.780Z,18.02
2023-02-07T18:48:29.872Z,17.48
2023-02-07T18:51:04.993Z,16.25
2023-02-07T18:53:31.912Z,18.00
2023-02-07T18:56:11.860Z,18.15
2023-02-07T18:58:39.147Z,18.20
2023-02-07T19:01:12.270Z,16.02
2023-02-07T19:03:39.131Z,16.35
2023-02-07T19:06:08.355Z,18.80
2023-02-07T19:08:39.410Z,20.05
2023-02-07T19:11:07.535Z,17.45
2023-02-07T19:13:36.102Z,19.25
2023-02-07T19:16:14.203Z,17.12
2023-02-07T19:18:42.212Z,21.02
2023-02-07T19:21:15.035Z,18.40
2023-02-07T19:23:49.620Z,15.32
2023-02-07T19:26:21.322Z,17.80
2023-02-07T19:28:51.964Z,18.60
2023-02-07T19:31:22.854Z,18.95
2023-02-07T19:33:53.225Z,21.30
2023-02-07T19:36:27.553Z,17.92
2023-02-07T19:39:01.636Z,16.23
2023-02-07T19:41:32.592Z,17.15
2023-02-07T19:44:00.311Z,20.58
2023-02-07T19:46:29.421Z,19.40
2023-02-07T19:49:03.556Z,18.37
2023-02-07T19:51:35.039Z,17.90
2023-02-07T19:54:10.135Z,19.35
2023-02-07T19:56:40.592Z,19.87
2023-02-07T19:59:14.197Z,20.45
2023-02-07T20:01:47.908Z,19.12
2023-02-07T20:04:15.285Z,22.05
2023-02-07T20:06:51.762Z,18.98
2023-02-07T20:09:24.850Z,17.40
2023-02-07T20:14:24.573Z,18.48
2023-02-07T20:16:57.316Z,19.12
2023-02-07T20:19:24.108Z,20.92
2023-02-07T20:21:57.477Z,20.05
2023-02-07T20:24:27.793Z,18.92
2023-02-07T20:27:00.665Z,19.77
2023-02-07T20:29:27.582Z,18.27
2023-02-07T20:31:54.308Z,20.62
2023-02-07T20:34:21.083Z,19.35
2023-02-07T20:36:50.942Z,19.10
2023-02-07T20:39:21.560Z,18.40
2023-02-07T20:41:51.956Z,18.58
2023-02-07T20:44:25.076Z,17.40
2023-02-07T20:49:29.057Z,20.48
2023-02-07T20:52:02.247Z,18.50
2023-02-07T20:54:30.626Z,17.12
2023-02-07T20:56:58.158Z,18.62
2023-02-07T20:59:32.649Z,19.02
2023-02-07T21:02:02.446Z,19.92
2023-02-07T21:04:32.971Z,21.12
2023-02-07T21:07:03.800Z,17.95
2023-02-07T21:09:42.094Z,17.75
2023-02-07T21:12:12.910Z,18.08
2023-02-07T21:14:45.645Z,17.87
2023-02-07T21:17:15.194Z,19.75
2023-02-07T21:19:46.546Z,21.58
2023-02-07T21:22:17.416Z,16.73
2023-02-07T21:24:44.129Z,17.87
2023-02-07T21:27:10.997Z,18.90
2023-02-07T21:29:42.073Z,15.95
2023-02-07T21:32:14.586Z,17.42
2023-02-07T21:34:44.125Z,20.75
2023-02-07T21:37:11.006Z,17.52
2023-02-07T21:39:40.485Z,18.37
2023-02-07T21:42:10.047Z,19.23
2023-02-07T21:44:37.783Z,17.10
2023-02-07T21:47:04.817Z,18.75
2023-02-07T21:49:43.365Z,18.42
2023-02-07T21:52:11.538Z,15.38
2023-02-07T21:54:41.980Z,16.60
2023-02-07T21:57:12.006Z,15.45
2023-02-07T21:59:44.893Z,15.82
2023-02-07T22:02:19.874Z,19.45
2023-02-07T22:04:46.842Z,17.70
2023-02-07T22:07:13.619Z,16.62
2023-02-07T22:09:40.628Z,15.05
2023-02-07T22:12:10.626Z,16.17
2023-02-07T22:14:37.907Z,16.50
2023-02-07T22:17:13.736Z,15.88
2023-02-07T22:19:40.943Z,16.73
2023-02-07T22:22:11.328Z,16.95
2023-02-07T22:24:42.539Z,18.00
2023-02-07T22:27:09.807Z,15.95
2023-02-07T22:29:36.682Z,15.30
2023-02-07T22:32:05.709Z,15.40
2023-02-07T22:34:32.510Z,13.75
2023-02-07T22:36:59.246Z,16.33
2023-02-07T22:39:32.496Z,17.52
2023-02-07T22:41:59.298Z,15.02
2023-02-07T22:44:29.105Z,14.77
2023-02-07T22:46:59.126Z,16.30
2023-02-07T22:49:25.951Z,15.95
2023-02-07T22:51:56.338Z,15.20
2023-02-07T22:54:25.827Z,13.73
2023-02-07T22:56:52.617Z,14.50
2023-02-07T22:59:19.498Z,13.90
2023-02-07T23:01:49.250Z,14.43
2023-02-07T23:04:19.461Z,17.60
2023-02-07T23:06:47.320Z,14.00
2023-02-07T23:09:14.861Z,16.50
2023-02-07T23:11:41.801Z,13.80
2023-02-07T23:14:11.763Z,15.45
2023-02-07T23:16:41.944Z,15.73
2023-02-07T23:19:17.766Z,14.70
2023-02-07T23:21:47.645Z,13.40
2023-02-07T23:24:20.122Z,14.05
2023-02-07T23:26:48.382Z,13.85
2023-02-07T23:29:18.364Z,13.45
2023-02-07T23:31:45.529Z,12.40
2023-02-07T23:34:15.630Z,14.05
2023-02-07T23:36:42.677Z,13.65
2023-02-07T23:39:12.576Z,12.35
2023-02-07T23:41:42.409Z,15.32
2023-02-07T23:44:09.620Z,13.55
2023-02-07T23:46:42.749Z,12.82
2023-02-07T23:51:42.510Z,13.20
2023-02-07T23:54:12.552Z,12.60
2023-02-07T23:56:41.681Z,13.90
2023-02-07T23:59:12.802Z,14.38
